createdAt,value
2019-02-24T00:05:38.924Z,38.47
2019-02-24T00:11:45.035Z,38.52
2019-02-24T00:17:50.899Z,38.50
2019-02-24T00:23:56.892Z,38.23
2019-02-24T00:30:02.860Z,38.35
2019-02-24T00:36:08.935Z,38.39
2019-02-24T00:42:14.655Z,38.49
2019-02-24T00:48:20.832Z,38.59
2019-02-24T00:54:26.905Z,38.33
2019-02-24T01:00:32.810Z,38.29
2019-02-24T01:06:38.820Z,37.75
2019-02-24T01:12:44.789Z,37.41
2019-02-24T01:18:50.637Z,37.12
2019-02-24T01:24:56.659Z,36.75
2019-02-24T01:31:21.462Z,36.32
2019-02-24T01:37:27.659Z,35.97
2019-02-24T01:43:33.542Z,35.87
2019-02-24T01:49:39.251Z,35.71
2019-02-24T01:55:45.054Z,36.10
2019-02-24T02:01:50.913Z,36.02
2019-02-24T02:07:57.435Z,36.09
2019-02-24T02:14:03.311Z,36.07
2019-02-24T02:20:09.513Z,36.09
2019-02-24T02:26:15.766Z,36.31
2019-02-24T02:32:21.759Z,36.39
2019-02-24T02:38:27.821Z,36.55
2019-02-24T02:44:33.659Z,36.37
2019-02-24T02:50:39.654Z,36.03
2019-02-24T02:56:45.362Z,36.28
2019-02-24T03:02:51.332Z,36.11
2019-02-24T03:08:57.313Z,35.83
2019-02-24T03:15:03.090Z,36.04
2019-02-24T03:21:09.156Z,36.07
2019-02-24T03:27:14.896Z,36.20
2019-02-24T03:33:21.179Z,36.31
2019-02-24T03:39:26.971Z,36.56
2019-02-24T03:45:32.760Z,37.11
2019-02-24T03:51:38.587Z,37.44
2019-02-24T03:57:44.791Z,37.51
2019-02-24T04:03:50.531Z,37.54
2019-02-24T04:09:56.441Z,37.17
2019-02-24T04:16:02.214Z,38.23
2019-02-24T04:22:08.383Z,38.55
2019-02-24T04:28:14.169Z,38.72
2019-02-24T04:34:20.128Z,38.41
2019-02-24T04:40:25.957Z,38.42
2019-02-24T04:46:32.201Z,38.52
2019-02-24T04:52:38.315Z,38.64
2019-02-24T04:58:44.150Z,39.28
2019-02-24T05:04:50.090Z,39.34
2019-02-24T05:10:56.176Z,40.03
2019-02-24T05:17:02.169Z,40.12
2019-02-24T05:23:08.116Z,40.00
2019-02-24T05:29:14.320Z,40.96
2019-02-24T05:35:20.577Z,41.59
2019-02-24T05:41:26.395Z,41.74
2019-02-24T05:47:32.568Z,42.10
2019-02-24T05:53:38.577Z,42.01
2019-02-24T05:59:54.669Z,42.87
2019-02-24T06:05:52.843Z,42.51
2019-02-24T06:11:58.613Z,41.73
2019-02-24T06:18:04.492Z,42.09
2019-02-24T06:24:10.226Z,40.71
2019-02-24T06:30:15.997Z,39.76
2019-02-24T06:36:21.774Z,38.80
2019-02-24T06:42:27.724Z,38.57
2019-02-24T06:48:33.535Z,40.57
2019-02-24T06:54:39.343Z,39.20
2019-02-24T07:00:45.441Z,38.01
2019-02-24T07:06:51.428Z,38.14
2019-02-24T07:12:57.174Z,38.74
2019-02-24T07:19:03.204Z,37.69
2019-02-24T07:25:09.160Z,37.58
2019-02-24T07:31:16.797Z,37.22
2019-02-24T07:37:22.832Z,37.28
2019-02-24T07:43:28.825Z,36.86
2019-02-24T07:49:34.798Z,35.19
2019-02-24T07:55:40.990Z,34.37
2019-02-24T08:01:47.199Z,32.93
2019-02-24T08:07:53.256Z,31.73
2019-02-24T08:13:59.261Z,31.10
2019-02-24T08:20:06.007Z,31.46
2019-02-24T08:26:11.976Z,30.35
2019-02-24T08:32:17.991Z,28.25
2019-02-24T08:38:24.593Z,28.55
2019-02-24T08:44:31.044Z,28.45
2019-02-24T08:50:37.082Z,28.67
2019-02-24T08:56:43.074Z,28.10
2019-02-24T09:02:49.010Z,27.81
2019-02-24T09:08:55.031Z,27.52
2019-02-24T09:15:00.791Z,27.37
2019-02-24T09:21:06.715Z,27.16
2019-02-24T09:27:12.993Z,25.67
2019-02-24T09:33:19.096Z,24.90
2019-02-24T09:39:24.849Z,25.19
2019-02-24T09:45:30.671Z,24.89
2019-02-24T09:51:36.601Z,24.24
2019-02-24T09:57:42.871Z,24.03
2019-02-24T10:03:48.676Z,24.06
2019-02-24T10:09:54.475Z,23.59
2019-02-24T10:16:00.744Z,23.31
2019-02-24T10:22:06.587Z,23.42
2019-02-24T10:28:12.649Z,23.31
2019-02-24T10:34:18.428Z,23.23
2019-02-24T10:40:24.473Z,23.89
2019-02-24T10:46:30.371Z,24.56
2019-02-24T10:52:36.184Z,24.17
2019-02-24T10:58:41.984Z,24.73
2019-02-24T11:04:48.984Z,24.43
2019-02-24T11:10:54.892Z,24.13
2019-02-24T11:17:00.747Z,24.02
2019-02-24T11:23:06.630Z,23.36
2019-02-24T11:29:12.776Z,22.52
2019-02-24T11:35:18.596Z,22.04
2019-02-24T11:41:24.675Z,21.67
2019-02-24T11:47:30.558Z,22.41
2019-02-24T11:53:36.459Z,22.39
2019-02-24T11:59:42.476Z,21.98
2019-02-24T12:05:48.366Z,22.13
2019-02-24T12:11:54.437Z,21.83
2019-02-24T12:18:00.399Z,21.96
2019-02-24T12:24:06.145Z,21.73
2019-02-24T12:30:12.313Z,22.13
2019-02-24T12:36:18.110Z,21.53
2019-02-24T12:42:23.965Z,21.13
2019-02-24T12:48:30.303Z,20.90
2019-02-24T12:54:36.051Z,19.75
2019-02-24T13:00:42.213Z,19.99
2019-02-24T13:06:48.173Z,20.34
2019-02-24T13:12:53.999Z,19.98
2019-02-24T13:18:59.762Z,20.20
2019-02-24T13:25:05.612Z,19.90
2019-02-24T13:31:11.371Z,20.11
2019-02-24T13:37:17.094Z,19.67
2019-02-24T13:43:22.846Z,19.93
2019-02-24T13:49:28.637Z,20.25
2019-02-24T13:55:34.477Z,19.33
2019-02-24T14:01:40.271Z,19.77
2019-02-24T14:07:50.388Z,19.62
2019-02-24T14:13:56.330Z,19.37
2019-02-24T14:20:02.149Z,19.63
2019-02-24T14:26:08.196Z,19.71
2019-02-24T14:32:14.463Z,19.59
2019-02-24T14:38:20.257Z,19.75
2019-02-24T14:44:26.132Z,18.96
2019-02-24T14:50:31.867Z,19.20
2019-02-24T14:56:37.626Z,19.91
2019-02-24T15:02:43.590Z,19.52
2019-02-24T15:08:49.561Z,19.48
2019-02-24T15:14:55.578Z,19.55
2019-02-24T15:21:01.630Z,19.06
2019-02-24T15:27:07.461Z,18.89
2019-02-24T15:33:13.279Z,19.15
2019-02-24T15:39:19.117Z,18.90
2019-02-24T15:45:25.298Z,18.79
2019-02-24T15:51:31.128Z,18.83
2019-02-24T15:57:36.958Z,18.70
2019-02-24T16:03:42.858Z,18.58
2019-02-24T16:09:48.589Z,18.75
2019-02-24T16:15:54.386Z,18.72
2019-02-24T16:22:02.495Z,18.88
2019-02-24T16:28:08.497Z,18.93
2019-02-24T16:34:14.450Z,19.28
2019-02-24T16:40:21.879Z,20.25
2019-02-24T16:46:27.636Z,20.81
2019-02-24T16:52:33.419Z,21.09
2019-02-24T16:58:39.264Z,21.14
2019-02-24T17:04:45.235Z,21.40
2019-02-24T17:10:51.012Z,22.24
2019-02-24T17:17:01.630Z,22.92
2019-02-24T17:23:04.711Z,23.89
2019-02-24T17:29:10.738Z,24.86
2019-02-24T17:35:16.510Z,24.95
2019-02-24T17:41:22.427Z,25.65
2019-02-24T17:47:28.239Z,26.33
2019-02-24T17:53:34.448Z,26.61
2019-02-24T17:59:40.837Z,27.79
2019-02-24T18:05:46.789Z,28.47
2019-02-24T18:11:53.335Z,28.76
2019-02-24T18:17:59.609Z,29.01
2019-02-24T18:24:05.603Z,30.01
2019-02-24T18:30:15.842Z,30.85
2019-02-24T18:36:22.035Z,31.15
2019-02-24T18:42:27.884Z,31.46
2019-02-24T18:48:34.125Z,31.28
2019-02-24T18:54:41.835Z,31.66
2019-02-24T19:00:50.364Z,33.35
2019-02-24T19:06:56.849Z,34.29
2019-02-24T19:13:02.794Z,34.60
2019-02-24T19:19:09.824Z,35.90
2019-02-24T19:25:15.721Z,36.23
2019-02-24T19:31:21.508Z,35.14
2019-02-24T19:37:27.363Z,35.25
2019-02-24T19:43:33.387Z,35.07
2019-02-24T19:49:39.222Z,34.78
2019-02-24T19:55:45.196Z,35.93
2019-02-24T20:01:51.060Z,35.88
2019-02-24T20:07:56.874Z,36.89
2019-02-24T20:14:03.082Z,38.04
2019-02-24T20:20:10.170Z,38.86
2019-02-24T20:26:16.546Z,40.64
2019-02-24T20:32:22.355Z,40.91
2019-02-24T20:38:28.253Z,40.89
2019-02-24T20:44:34.036Z,41.45
2019-02-24T20:50:39.807Z,43.33
2019-02-24T20:56:45.678Z,44.87
2019-02-24T21:02:51.900Z,45.30
2019-02-24T21:08:57.890Z,45.86
2019-02-24T21:15:04.322Z,46.45
2019-02-24T21:21:10.165Z,47.16
2019-02-24T21:27:15.972Z,47.26
2019-02-24T21:33:22.302Z,47.73
2019-02-24T21:39:28.427Z,46.83
2019-02-24T21:45:34.164Z,46.57
2019-02-24T21:51:40.903Z,46.56
2019-02-24T21:57:46.916Z,47.18
2019-02-24T22:03:53.129Z,48.28
2019-02-24T22:09:59.558Z,48.95
2019-02-24T22:16:06.172Z,49.07
2019-02-24T22:22:11.945Z,49.59
2019-02-24T22:28:17.907Z,48.95
2019-02-24T22:34:23.906Z,48.85
2019-02-24T22:40:29.653Z,48.68
2019-02-24T22:46:35.499Z,48.43
2019-02-24T22:52:41.218Z,48.28
2019-02-24T22:58:47.333Z,48.44
2019-02-24T23:04:53.193Z,48.90
2019-02-24T23:10:59.226Z,49.22
2019-02-24T23:17:05.581Z,49.98
2019-02-24T23:23:11.567Z,51.47
2019-02-24T23:29:17.469Z,51.95
2019-02-24T23:35:23.327Z,52.24
2019-02-24T23:41:29.553Z,52.95
2019-02-24T23:47:36.006Z,52.70
2019-02-24T23:53:42.084Z,53.45
2019-02-24T23:59:48.202Z,53.95
